createdAt,value
2022-10-14T00:00:27.776Z,8.10
2022-10-14T00:05:53.633Z,7.00
2022-10-14T00:11:07.120Z,7.35
2022-10-14T00:16:20.162Z,7.70
2022-10-14T00:21:26.013Z,7.75
2022-10-14T00:26:36.293Z,7.67
2022-10-14T00:31:42.546Z,8.67
2022-10-14T00:36:48.187Z,8.20
2022-10-14T00:42:00.278Z,8.10
2022-10-14T00:47:05.837Z,7.63
2022-10-14T00:52:17.348Z,9.48
2022-10-14T00:57:27.952Z,8.70
2022-10-14T01:02:33.663Z,9.97
2022-10-14T01:08:00.885Z,9.82
2022-10-14T01:13:19.176Z,10.20
2022-10-14T01:18:39.175Z,10.97
2022-10-14T01:24:07.701Z,10.98
2022-10-14T01:29:30.528Z,11.07
2022-10-14T01:34:44.540Z,11.73
2022-10-14T01:39:54.969Z,12.10
2022-10-14T01:45:05.148Z,10.87
2022-10-14T01:50:17.355Z,11.63
2022-10-14T01:55:27.206Z,11.85
2022-10-14T02:00:32.744Z,11.90
2022-10-14T02:05:49.588Z,11.50
2022-10-14T02:11:08.084Z,10.50
2022-10-14T02:16:22.770Z,10.87
2022-10-14T02:21:36.594Z,11.50
2022-10-14T02:26:43.841Z,12.03
2022-10-14T02:31:50.945Z,10.85
2022-10-14T02:37:03.268Z,11.45
2022-10-14T02:42:11.423Z,11.40
2022-10-14T02:47:16.722Z,11.15
2022-10-14T02:52:25.072Z,11.10
2022-10-14T02:57:32.339Z,12.60
2022-10-14T03:02:37.706Z,12.80
2022-10-14T03:07:46.748Z,12.23
2022-10-14T03:12:55.923Z,11.93
2022-10-14T03:18:07.613Z,11.52
2022-10-14T03:23:23.442Z,12.00
2022-10-14T03:28:31.952Z,12.17
2022-10-14T03:33:48.871Z,12.25
2022-10-14T03:38:59.710Z,11.40
2022-10-14T03:44:16.662Z,10.70
2022-10-14T03:49:41.351Z,10.07
2022-10-14T03:54:57.753Z,8.93
2022-10-14T04:00:03.702Z,9.60
2022-10-14T04:05:21.453Z,9.70
2022-10-14T04:10:31.252Z,9.07
2022-10-14T04:15:39.218Z,8.75
2022-10-14T04:20:49.627Z,8.93
2022-10-14T04:26:01.191Z,8.80
2022-10-14T04:31:08.587Z,9.23
2022-10-14T04:36:26.411Z,8.55
2022-10-14T04:41:37.490Z,9.10
2022-10-14T04:46:43.222Z,9.25
2022-10-14T04:51:48.944Z,9.83
2022-10-14T04:57:03.735Z,9.37
2022-10-14T05:02:09.302Z,7.85
2022-10-14T05:07:24.016Z,9.17
2022-10-14T05:12:37.770Z,8.53
2022-10-14T05:17:44.766Z,10.05
2022-10-14T05:22:54.500Z,8.00
2022-10-14T05:28:02.690Z,7.90
2022-10-14T05:33:09.454Z,7.70
2022-10-14T05:38:17.901Z,7.13
2022-10-14T05:43:32.110Z,7.10
2022-10-14T05:48:39.335Z,7.53
2022-10-14T05:53:45.161Z,7.67
2022-10-14T05:58:58.268Z,6.30
2022-10-14T06:04:05.164Z,7.55
2022-10-14T06:09:11.617Z,6.90
2022-10-14T06:14:20.568Z,7.20
2022-10-14T06:19:26.208Z,7.55
2022-10-14T06:24:31.606Z,7.00
2022-10-14T06:29:40.638Z,7.47
2022-10-14T06:34:46.388Z,6.80
2022-10-14T06:39:51.668Z,6.33
2022-10-14T06:44:59.682Z,7.32
2022-10-14T06:50:05.136Z,6.72
2022-10-14T06:55:11.131Z,6.50
2022-10-14T07:00:21.025Z,6.80
2022-10-14T07:05:26.776Z,6.78
2022-10-14T07:10:32.086Z,6.07
2022-10-14T07:15:40.943Z,6.15
2022-10-14T07:20:46.370Z,6.57
2022-10-14T07:25:51.741Z,6.28
2022-10-14T07:31:05.684Z,6.75
2022-10-14T07:36:15.153Z,6.53
2022-10-14T07:41:25.478Z,5.88
2022-10-14T07:46:35.002Z,6.25
2022-10-14T07:51:41.219Z,6.10
2022-10-14T07:56:49.236Z,6.53
2022-10-14T08:01:58.232Z,6.00
2022-10-14T08:07:04.755Z,5.40
2022-10-14T08:12:10.429Z,6.68
2022-10-14T08:17:18.691Z,6.23
2022-10-14T08:22:24.386Z,5.47
2022-10-14T08:27:30.190Z,6.18
2022-10-14T08:32:38.366Z,4.77
2022-10-14T08:37:44.036Z,4.90
2022-10-14T08:42:57.462Z,4.85
2022-10-14T08:48:13.169Z,4.50
2022-10-14T08:53:22.474Z,4.40
2022-10-14T08:58:32.177Z,3.97
2022-10-14T09:03:40.822Z,4.10
2022-10-14T09:08:48.480Z,3.95
2022-10-14T09:13:57.522Z,4.07
2022-10-14T09:19:08.973Z,3.97
2022-10-14T09:24:17.009Z,3.85
2022-10-14T09:29:28.965Z,3.73
2022-10-14T09:34:40.007Z,3.43
2022-10-14T09:39:45.819Z,3.58
2022-10-14T09:50:39.036Z,3.43
2022-10-14T09:55:51.073Z,3.95
2022-10-14T10:01:00.325Z,3.23
2022-10-14T10:06:11.729Z,3.80
2022-10-14T10:11:18.567Z,3.80
2022-10-14T10:16:26.601Z,5.07
2022-10-14T10:21:37.072Z,4.40
2022-10-14T10:26:42.721Z,3.92
2022-10-14T10:32:06.814Z,3.63
2022-10-14T10:37:31.872Z,3.70
2022-10-14T10:42:42.223Z,4.05
2022-10-14T10:47:54.101Z,3.63
2022-10-14T10:53:16.294Z,3.70
2022-10-14T10:58:40.733Z,4.15
2022-10-14T11:03:58.166Z,5.43
2022-10-14T11:09:21.475Z,4.93
2022-10-14T11:14:51.654Z,5.00
2022-10-14T11:20:05.687Z,5.40
2022-10-14T11:25:25.718Z,5.27
2022-10-14T11:30:45.469Z,6.28
2022-10-14T11:36:01.638Z,6.43
2022-10-14T11:41:19.308Z,6.03
2022-10-14T11:46:27.787Z,7.05
2022-10-14T11:51:37.595Z,6.83
2022-10-14T11:56:49.714Z,7.53
2022-10-14T12:02:07.315Z,7.65
2022-10-14T12:07:19.363Z,7.37
2022-10-14T12:12:31.546Z,7.53
2022-10-14T12:17:40.144Z,8.45
2022-10-14T12:22:47.796Z,8.37
2022-10-14T12:27:56.567Z,8.30
2022-10-14T12:33:04.243Z,8.57
2022-10-14T12:38:15.247Z,8.13
2022-10-14T12:43:29.780Z,8.10
2022-10-14T12:48:38.117Z,9.23
2022-10-14T12:53:53.269Z,9.10
2022-10-14T12:59:04.124Z,9.77
2022-10-14T13:04:20.134Z,8.80
2022-10-14T13:09:37.943Z,9.47
2022-10-14T13:15:04.170Z,9.00
2022-10-14T13:20:46.263Z,9.10
2022-10-14T13:25:53.667Z,10.23
2022-10-14T13:31:07.568Z,9.20
2022-10-14T13:36:19.514Z,10.73
2022-10-14T13:41:29.957Z,9.70
2022-10-14T13:46:47.130Z,10.43
2022-10-14T13:51:55.915Z,10.30
2022-10-14T13:57:38.251Z,10.93
2022-10-14T14:02:32.609Z,10.20
2022-10-14T14:08:21.665Z,10.63
2022-10-14T14:13:07.862Z,10.97
2022-10-14T14:18:49.258Z,10.27
2022-10-14T14:24:04.190Z,9.27
2022-10-14T14:29:16.452Z,10.63
2022-10-14T14:34:26.375Z,10.97
2022-10-14T14:39:33.158Z,11.43
2022-10-14T14:44:39.084Z,10.68
2022-10-14T14:49:47.207Z,10.80
2022-10-14T14:54:53.820Z,10.40
2022-10-14T15:00:04.671Z,10.43
2022-10-14T15:05:14.683Z,10.00
2022-10-14T15:10:26.337Z,9.63
2022-10-14T15:15:33.297Z,8.90
2022-10-14T15:20:46.616Z,8.93
2022-10-14T15:26:00.898Z,8.98
2022-10-14T15:31:18.574Z,8.70
2022-10-14T15:36:26.628Z,8.90
2022-10-14T15:41:32.445Z,8.55
2022-10-14T15:46:51.780Z,8.27
2022-10-14T15:51:59.903Z,8.40
2022-10-14T15:57:05.868Z,10.75
2022-10-14T16:02:21.030Z,8.82
2022-10-14T16:07:29.025Z,8.40
2022-10-14T16:12:34.774Z,9.63
2022-10-14T16:17:40.065Z,9.13
2022-10-14T16:22:48.180Z,8.67
2022-10-14T16:27:53.967Z,10.32
2022-10-14T16:33:00.376Z,8.90
2022-10-14T16:38:08.350Z,9.60
2022-10-14T16:43:14.180Z,8.88
2022-10-14T16:48:20.522Z,9.23
2022-10-14T16:53:45.329Z,10.30
2022-10-14T16:58:50.762Z,9.45
2022-10-14T17:03:58.668Z,8.88
2022-10-14T17:09:06.710Z,13.17
2022-10-14T17:14:15.578Z,10.93
2022-10-14T17:19:21.267Z,10.20
2022-10-14T17:24:29.530Z,9.93
2022-10-14T17:29:35.683Z,11.13
2022-10-14T17:34:41.064Z,9.52
2022-10-14T17:39:49.296Z,9.77
2022-10-14T17:44:54.756Z,8.95
2022-10-14T17:50:00.504Z,8.25
2022-10-14T17:55:09.550Z,7.90
2022-10-14T18:00:16.135Z,8.60
2022-10-14T18:05:21.392Z,7.77
2022-10-14T18:10:30.030Z,7.80
2022-10-14T18:15:36.577Z,7.90
2022-10-14T18:20:41.842Z,7.35
2022-10-14T18:25:50.216Z,7.97
2022-10-14T18:31:02.112Z,8.07
2022-10-14T18:36:09.718Z,7.18
2022-10-14T18:41:17.982Z,7.03
2022-10-14T18:46:25.703Z,8.10
2022-10-14T18:51:33.559Z,7.65
2022-10-14T18:56:42.206Z,8.20
2022-10-14T19:01:50.635Z,7.72
2022-10-14T19:06:56.510Z,7.95
2022-10-14T19:12:24.924Z,8.97
2022-10-14T19:17:30.373Z,8.48
2022-10-14T19:22:40.750Z,7.63
2022-10-14T19:27:49.313Z,8.13
2022-10-14T19:32:57.895Z,7.18
2022-10-14T19:38:03.760Z,8.00
2022-10-14T19:43:11.843Z,7.63
2022-10-14T19:48:17.609Z,7.65
2022-10-14T19:53:23.052Z,7.53
2022-10-14T19:58:34.186Z,7.80
2022-10-14T20:03:40.144Z,7.13
2022-10-14T20:08:46.359Z,7.47
2022-10-14T20:13:54.755Z,7.73
2022-10-14T20:19:00.195Z,8.25
2022-10-14T20:24:05.514Z,8.33
2022-10-14T20:29:14.780Z,8.10
2022-10-14T20:34:20.239Z,8.13
2022-10-14T20:39:26.364Z,7.83
2022-10-14T20:44:34.429Z,7.77
2022-10-14T20:49:39.996Z,7.43
2022-10-14T20:54:45.425Z,7.13
2022-10-14T20:59:53.297Z,7.77
2022-10-14T21:04:59.161Z,8.85
2022-10-14T21:10:04.609Z,18.33
2022-10-14T21:15:13.937Z,12.20
2022-10-14T21:20:19.823Z,10.05
2022-10-14T21:25:25.635Z,11.00
2022-10-14T21:30:34.446Z,8.23
2022-10-14T21:35:40.066Z,9.07
2022-10-14T21:40:45.703Z,9.50
2022-10-14T21:45:53.752Z,7.23
2022-10-14T21:51:04.665Z,6.95
2022-10-14T21:56:11.385Z,7.63
2022-10-14T22:01:22.588Z,5.83
2022-10-14T22:06:28.934Z,6.47
2022-10-14T22:11:36.153Z,6.37
2022-10-14T22:16:43.960Z,7.23
2022-10-14T22:21:50.227Z,6.30
2022-10-14T22:26:56.392Z,6.93
2022-10-14T22:32:04.194Z,6.80
2022-10-14T22:37:09.824Z,6.45
2022-10-14T22:42:17.058Z,6.97
2022-10-14T22:47:25.534Z,5.97
2022-10-14T22:52:31.482Z,5.72
2022-10-14T22:57:37.265Z,6.00
2022-10-14T23:02:45.800Z,5.93
2022-10-14T23:07:51.885Z,5.43
2022-10-14T23:12:57.387Z,6.17
2022-10-14T23:18:06.253Z,5.43
2022-10-14T23:23:11.637Z,6.22
2022-10-14T23:28:27.539Z,5.73
2022-10-14T23:33:35.606Z,6.50
2022-10-14T23:38:41.791Z,7.50
2022-10-14T23:43:47.296Z,6.57
2022-10-14T23:49:07.285Z,5.50
2022-10-14T23:54:20.971Z,5.13
2022-10-14T23:59:26.610Z,5.53
